sensor_id;sensor_type;location;lat;lon;timestamp;temperature;humidity
9564;DHT22;4820;50.870;4.702;2023-08-06T00:01:51;16.00;99.90
9564;DHT22;4820;50.870;4.702;2023-08-06T00:04:17;16.00;99.90
9564;DHT22;4820;50.870;4.702;2023-08-06T00:06:43;16.00;99.90
9564;DHT22;4820;50.870;4.702;2023-08-06T00:09:08;16.00;99.90
9564;DHT22;4820;50.870;4.702;2023-08-06T00:11:34;16.00;99.90
9564;DHT22;4820;50.870;4.702;2023-08-06T00:14:00;16.00;99.90
9564;DHT22;4820;50.870;4.702;2023-08-06T00:16:26;16.00;99.90
9564;DHT22;4820;50.870;4.702;2023-08-06T00:18:51;16.00;99.90
9564;DHT22;4820;50.870;4.702;2023-08-06T00:21:17;16.00;99.90
9564;DHT22;4820;50.870;4.702;2023-08-06T00:23:43;16.00;99.90
9564;DHT22;4820;50.870;4.702;2023-08-06T00:26:08;16.00;99.90
9564;DHT22;4820;50.870;4.702;2023-08-06T00:28:34;16.00;99.90
9564;DHT22;4820;50.870;4.702;2023-08-06T00:31:00;16.00;99.90
9564;DHT22;4820;50.870;4.702;2023-08-06T00:33:26;16.00;99.90
9564;DHT22;4820;50.870;4.702;2023-08-06T00:35:51;16.00;99.90
9564;DHT22;4820;50.870;4.702;2023-08-06T00:38:17;16.00;99.90
9564;DHT22;4820;50.870;4.702;2023-08-06T00:40:43;16.00;99.90
9564;DHT22;4820;50.870;4.702;2023-08-06T00:43:09;16.00;99.90
9564;DHT22;4820;50.870;4.702;2023-08-06T00:45:36;16.00;99.90
9564;DHT22;4820;50.870;4.702;2023-08-06T00:48:03;16.00;99.90
9564;DHT22;4820;50.870;4.702;2023-08-06T00:50:31;16.00;99.90
9564;DHT22;4820;50.870;4.702;2023-08-06T00:52:57;16.10;99.90
9564;DHT22;4820;50.870;4.702;2023-08-06T00:55:23;16.00;99.90
9564;DHT22;4820;50.870;4.702;2023-08-06T00:57:49;16.10;99.90
9564;DHT22;4820;50.870;4.702;2023-08-06T01:00:16;16.10;99.90
9564;DHT22;4820;50.870;4.702;2023-08-06T01:02:42;16.10;99.90
9564;DHT22;4820;50.870;4.702;2023-08-06T01:05:08;16.10;99.90
9564;DHT22;4820;50.870;4.702;2023-08-06T01:10:23;16.10;99.90
9564;DHT22;4820;50.870;4.702;2023-08-06T01:15:43;16.20;99.90
9564;DHT22;4820;50.870;4.702;2023-08-06T01:18:10;16.20;99.90
9564;DHT22;4820;50.870;4.702;2023-08-06T01:20:36;16.20;99.90
9564;DHT22;4820;50.870;4.702;2023-08-06T01:23:02;16.20;99.90
9564;DHT22;4820;50.870;4.702;2023-08-06T01:25:36;16.20;99.90
9564;DHT22;4820;50.870;4.702;2023-08-06T01:28:33;16.20;99.90
9564;DHT22;4820;50.870;4.702;2023-08-06T01:31:04;16.20;99.90
9564;DHT22;4820;50.870;4.702;2023-08-06T01:33:34;16.20;99.90
9564;DHT22;4820;50.870;4.702;2023-08-06T01:36:03;16.20;99.90
9564;DHT22;4820;50.870;4.702;2023-08-06T01:38:29;16.20;99.90
9564;DHT22;4820;50.870;4.702;2023-08-06T01:40:55;16.10;99.90
9564;DHT22;4820;50.870;4.702;2023-08-06T01:43:20;16.20;99.90
9564;DHT22;4820;50.870;4.702;2023-08-06T01:45:47;16.20;99.90
9564;DHT22;4820;50.870;4.702;2023-08-06T01:48:12;16.20;99.90
9564;DHT22;4820;50.870;4.702;2023-08-06T01:50:38;16.20;99.90
9564;DHT22;4820;50.870;4.702;2023-08-06T01:53:04;16.20;99.90
9564;DHT22;4820;50.870;4.702;2023-08-06T01:55:30;16.20;99.90
9564;DHT22;4820;50.870;4.702;2023-08-06T01:57:56;16.30;99.90
9564;DHT22;4820;50.870;4.702;2023-08-06T02:00:21;16.30;99.90
9564;DHT22;4820;50.870;4.702;2023-08-06T02:02:47;16.30;99.90
9564;DHT22;4820;50.870;4.702;2023-08-06T02:05:13;16.30;99.90
9564;DHT22;4820;50.870;4.702;2023-08-06T02:07:39;16.30;99.90
9564;DHT22;4820;50.870;4.702;2023-08-06T02:10:05;16.20;99.90
9564;DHT22;4820;50.870;4.702;2023-08-06T02:12:31;16.20;99.90
9564;DHT22;4820;50.870;4.702;2023-08-06T02:14:56;16.20;99.90
9564;DHT22;4820;50.870;4.702;2023-08-06T02:17:22;16.20;99.90
9564;DHT22;4820;50.870;4.702;2023-08-06T02:19:48;16.10;99.90
9564;DHT22;4820;50.870;4.702;2023-08-06T02:22:13;16.10;99.90
9564;DHT22;4820;50.870;4.702;2023-08-06T02:24:39;16.10;99.90
9564;DHT22;4820;50.870;4.702;2023-08-06T02:27:05;16.00;99.90
9564;DHT22;4820;50.870;4.702;2023-08-06T02:29:31;16.00;99.90
9564;DHT22;4820;50.870;4.702;2023-08-06T02:31:57;16.00;99.90
9564;DHT22;4820;50.870;4.702;2023-08-06T02:34:22;16.00;99.90
9564;DHT22;4820;50.870;4.702;2023-08-06T02:36:48;16.00;99.90
9564;DHT22;4820;50.870;4.702;2023-08-06T02:39:14;16.00;99.90
9564;DHT22;4820;50.870;4.702;2023-08-06T02:41:39;16.00;99.90
9564;DHT22;4820;50.870;4.702;2023-08-06T02:44:05;16.00;99.90
9564;DHT22;4820;50.870;4.702;2023-08-06T02:46:31;16.00;99.90
9564;DHT22;4820;50.870;4.702;2023-08-06T02:48:57;16.00;99.90
9564;DHT22;4820;50.870;4.702;2023-08-06T02:51:22;16.00;99.90
9564;DHT22;4820;50.870;4.702;2023-08-06T02:53:48;16.00;99.90
9564;DHT22;4820;50.870;4.702;2023-08-06T02:56:15;16.00;99.90
9564;DHT22;4820;50.870;4.702;2023-08-06T02:58:41;16.00;99.90
9564;DHT22;4820;50.870;4.702;2023-08-06T03:01:06;16.00;99.90
9564;DHT22;4820;50.870;4.702;2023-08-06T03:03:33;16.00;99.90
9564;DHT22;4820;50.870;4.702;2023-08-06T03:06:00;16.00;99.90
9564;DHT22;4820;50.870;4.702;2023-08-06T03:08:25;15.90;99.90
9564;DHT22;4820;50.870;4.702;2023-08-06T03:10:51;15.90;99.90
9564;DHT22;4820;50.870;4.702;2023-08-06T03:13:17;15.90;99.90
9564;DHT22;4820;50.870;4.702;2023-08-06T03:15:56;15.90;99.90
9564;DHT22;4820;50.870;4.702;2023-08-06T03:18:22;15.90;99.90
9564;DHT22;4820;50.870;4.702;2023-08-06T03:20:49;15.90;99.90
9564;DHT22;4820;50.870;4.702;2023-08-06T03:23:15;15.90;99.90
9564;DHT22;4820;50.870;4.702;2023-08-06T03:25:41;15.90;99.90
9564;DHT22;4820;50.870;4.702;2023-08-06T03:28:06;15.90;99.90
9564;DHT22;4820;50.870;4.702;2023-08-06T03:30:32;15.90;99.90
9564;DHT22;4820;50.870;4.702;2023-08-06T03:32:58;15.80;99.90
9564;DHT22;4820;50.870;4.702;2023-08-06T03:35:24;15.80;99.90
9564;DHT22;4820;50.870;4.702;2023-08-06T03:37:49;15.80;99.90
9564;DHT22;4820;50.870;4.702;2023-08-06T03:40:15;15.80;99.90
9564;DHT22;4820;50.870;4.702;2023-08-06T03:42:41;15.80;99.90
9564;DHT22;4820;50.870;4.702;2023-08-06T03:45:07;15.80;99.90
9564;DHT22;4820;50.870;4.702;2023-08-06T03:47:33;15.70;99.90
9564;DHT22;4820;50.870;4.702;2023-08-06T03:49:59;15.70;99.90
9564;DHT22;4820;50.870;4.702;2023-08-06T03:52:24;15.70;99.90
9564;DHT22;4820;50.870;4.702;2023-08-06T03:54:50;15.70;99.90
9564;DHT22;4820;50.870;4.702;2023-08-06T03:57:16;15.70;99.90
9564;DHT22;4820;50.870;4.702;2023-08-06T03:59:42;15.70;99.90
9564;DHT22;4820;50.870;4.702;2023-08-06T04:02:08;15.70;99.90
9564;DHT22;4820;50.870;4.702;2023-08-06T04:04:33;15.70;99.90
9564;DHT22;4820;50.870;4.702;2023-08-06T04:06:59;15.70;99.90
9564;DHT22;4820;50.870;4.702;2023-08-06T04:09:25;15.70;99.90
9564;DHT22;4820;50.870;4.702;2023-08-06T04:11:51;15.70;99.90
9564;DHT22;4820;50.870;4.702;2023-08-06T04:14:19;15.70;99.90
9564;DHT22;4820;50.870;4.702;2023-08-06T04:16:45;15.80;99.90
9564;DHT22;4820;50.870;4.702;2023-08-06T04:19:12;15.80;99.90
9564;DHT22;4820;50.870;4.702;2023-08-06T04:21:38;15.80;99.90
9564;DHT22;4820;50.870;4.702;2023-08-06T04:24:03;15.80;99.90
9564;DHT22;4820;50.870;4.702;2023-08-06T04:26:29;15.80;99.90
9564;DHT22;4820;50.870;4.702;2023-08-06T04:28:55;15.80;99.90
9564;DHT22;4820;50.870;4.702;2023-08-06T04:31:21;15.90;99.90
9564;DHT22;4820;50.870;4.702;2023-08-06T04:33:48;15.90;99.90
9564;DHT22;4820;50.870;4.702;2023-08-06T04:36:16;15.80;99.90
9564;DHT22;4820;50.870;4.702;2023-08-06T04:38:41;15.80;99.90
9564;DHT22;4820;50.870;4.702;2023-08-06T04:41:10;15.80;99.90
9564;DHT22;4820;50.870;4.702;2023-08-06T04:43:37;15.70;99.90
9564;DHT22;4820;50.870;4.702;2023-08-06T04:46:02;15.70;99.90
9564;DHT22;4820;50.870;4.702;2023-08-06T04:48:28;15.70;99.90
9564;DHT22;4820;50.870;4.702;2023-08-06T04:50:54;15.60;99.90
9564;DHT22;4820;50.870;4.702;2023-08-06T04:53:20;15.40;99.90
9564;DHT22;4820;50.870;4.702;2023-08-06T04:55:46;15.30;99.90
9564;DHT22;4820;50.870;4.702;2023-08-06T04:58:12;15.20;99.90
9564;DHT22;4820;50.870;4.702;2023-08-06T05:00:38;15.20;99.90
9564;DHT22;4820;50.870;4.702;2023-08-06T05:03:06;15.10;99.90
9564;DHT22;4820;50.870;4.702;2023-08-06T05:05:32;15.10;99.90
9564;DHT22;4820;50.870;4.702;2023-08-06T05:07:58;15.10;99.90
9564;DHT22;4820;50.870;4.702;2023-08-06T05:10:27;15.10;99.90
9564;DHT22;4820;50.870;4.702;2023-08-06T05:12:53;15.00;99.90
9564;DHT22;4820;50.870;4.702;2023-08-06T05:15:19;14.90;99.90
9564;DHT22;4820;50.870;4.702;2023-08-06T05:17:45;14.90;99.90
9564;DHT22;4820;50.870;4.702;2023-08-06T05:20:11;14.80;99.90
9564;DHT22;4820;50.870;4.702;2023-08-06T05:22:37;14.80;99.90
9564;DHT22;4820;50.870;4.702;2023-08-06T05:25:03;14.60;99.90
9564;DHT22;4820;50.870;4.702;2023-08-06T05:27:29;14.50;99.90
9564;DHT22;4820;50.870;4.702;2023-08-06T05:29:56;14.50;99.90
9564;DHT22;4820;50.870;4.702;2023-08-06T05:32:22;14.40;99.90
9564;DHT22;4820;50.870;4.702;2023-08-06T05:34:48;14.40;99.90
9564;DHT22;4820;50.870;4.702;2023-08-06T05:37:13;14.40;99.90
9564;DHT22;4820;50.870;4.702;2023-08-06T05:39:41;14.40;99.90
9564;DHT22;4820;50.870;4.702;2023-08-06T05:42:07;14.30;99.90
9564;DHT22;4820;50.870;4.702;2023-08-06T05:44:33;14.30;99.90
9564;DHT22;4820;50.870;4.702;2023-08-06T05:46:59;14.30;99.90
9564;DHT22;4820;50.870;4.702;2023-08-06T05:49:25;14.30;99.90
9564;DHT22;4820;50.870;4.702;2023-08-06T05:51:51;14.20;99.90
9564;DHT22;4820;50.870;4.702;2023-08-06T05:54:19;14.10;99.90
9564;DHT22;4820;50.870;4.702;2023-08-06T05:56:45;14.10;99.90
9564;DHT22;4820;50.870;4.702;2023-08-06T05:59:11;14.10;99.90
9564;DHT22;4820;50.870;4.702;2023-08-06T06:01:36;14.10;99.90
9564;DHT22;4820;50.870;4.702;2023-08-06T06:04:02;14.10;99.90
9564;DHT22;4820;50.870;4.702;2023-08-06T06:06:28;14.10;99.90
9564;DHT22;4820;50.870;4.702;2023-08-06T06:08:54;14.10;99.90
9564;DHT22;4820;50.870;4.702;2023-08-06T06:11:19;14.10;99.90
9564;DHT22;4820;50.870;4.702;2023-08-06T06:13:50;14.10;99.90
9564;DHT22;4820;50.870;4.702;2023-08-06T06:16:16;14.10;99.90
9564;DHT22;4820;50.870;4.702;2023-08-06T06:18:41;14.10;99.90
9564;DHT22;4820;50.870;4.702;2023-08-06T06:21:07;14.10;99.90
9564;DHT22;4820;50.870;4.702;2023-08-06T06:23:33;14.10;99.90
9564;DHT22;4820;50.870;4.702;2023-08-06T06:25:59;14.10;99.90
9564;DHT22;4820;50.870;4.702;2023-08-06T06:28:25;14.10;99.90
9564;DHT22;4820;50.870;4.702;2023-08-06T06:30:51;14.10;99.90
9564;DHT22;4820;50.870;4.702;2023-08-06T06:33:17;14.10;99.90
9564;DHT22;4820;50.870;4.702;2023-08-06T06:35:43;14.20;99.90
9564;DHT22;4820;50.870;4.702;2023-08-06T06:38:08;14.20;99.90
9564;DHT22;4820;50.870;4.702;2023-08-06T06:40:34;14.20;99.90
9564;DHT22;4820;50.870;4.702;2023-08-06T06:43:00;14.10;99.90
9564;DHT22;4820;50.870;4.702;2023-08-06T06:45:25;14.20;99.90
9564;DHT22;4820;50.870;4.702;2023-08-06T06:47:51;14.20;99.90
9564;DHT22;4820;50.870;4.702;2023-08-06T06:50:17;14.20;99.90
9564;DHT22;4820;50.870;4.702;2023-08-06T06:52:43;14.20;99.90
9564;DHT22;4820;50.870;4.702;2023-08-06T06:55:08;14.20;99.90
9564;DHT22;4820;50.870;4.702;2023-08-06T06:57:34;14.30;99.90
9564;DHT22;4820;50.870;4.702;2023-08-06T07:00:00;14.30;99.90
9564;DHT22;4820;50.870;4.702;2023-08-06T07:02:26;14.30;99.90
9564;DHT22;4820;50.870;4.702;2023-08-06T07:04:51;14.30;99.90
9564;DHT22;4820;50.870;4.702;2023-08-06T07:07:17;14.30;99.90
9564;DHT22;4820;50.870;4.702;2023-08-06T07:09:43;14.40;99.90
9564;DHT22;4820;50.870;4.702;2023-08-06T07:12:09;14.40;99.90
9564;DHT22;4820;50.870;4.702;2023-08-06T07:14:34;14.40;99.90
9564;DHT22;4820;50.870;4.702;2023-08-06T07:17:00;14.40;99.90
9564;DHT22;4820;50.870;4.702;2023-08-06T07:19:26;14.50;99.90
9564;DHT22;4820;50.870;4.702;2023-08-06T07:21:51;14.50;99.90
9564;DHT22;4820;50.870;4.702;2023-08-06T07:24:17;14.60;99.90
9564;DHT22;4820;50.870;4.702;2023-08-06T07:26:43;14.60;99.90
9564;DHT22;4820;50.870;4.702;2023-08-06T07:29:08;14.70;99.90
9564;DHT22;4820;50.870;4.702;2023-08-06T07:31:34;14.80;99.90
9564;DHT22;4820;50.870;4.702;2023-08-06T07:34:01;14.80;99.90
9564;DHT22;4820;50.870;4.702;2023-08-06T07:36:26;14.90;99.90
9564;DHT22;4820;50.870;4.702;2023-08-06T07:38:52;14.90;99.90
9564;DHT22;4820;50.870;4.702;2023-08-06T07:41:24;15.00;99.90
9564;DHT22;4820;50.870;4.702;2023-08-06T07:43:50;15.00;99.90
9564;DHT22;4820;50.870;4.702;2023-08-06T07:46:16;15.10;99.90
9564;DHT22;4820;50.870;4.702;2023-08-06T07:48:41;15.10;99.90
9564;DHT22;4820;50.870;4.702;2023-08-06T07:51:07;15.20;99.90
9564;DHT22;4820;50.870;4.702;2023-08-06T07:53:33;15.30;99.90
9564;DHT22;4820;50.870;4.702;2023-08-06T07:55:58;15.20;99.90
9564;DHT22;4820;50.870;4.702;2023-08-06T07:58:25;15.10;99.90
9564;DHT22;4820;50.870;4.702;2023-08-06T08:00:51;15.00;99.90
9564;DHT22;4820;50.870;4.702;2023-08-06T08:03:17;14.90;99.90
9564;DHT22;4820;50.870;4.702;2023-08-06T08:05:43;14.80;99.90
9564;DHT22;4820;50.870;4.702;2023-08-06T08:08:09;14.80;99.90
9564;DHT22;4820;50.870;4.702;2023-08-06T08:10:35;14.90;99.90
9564;DHT22;4820;50.870;4.702;2023-08-06T08:13:05;15.00;99.90
9564;DHT22;4820;50.870;4.702;2023-08-06T08:15:31;15.20;99.90
9564;DHT22;4820;50.870;4.702;2023-08-06T08:17:57;15.30;99.90
9564;DHT22;4820;50.870;4.702;2023-08-06T08:20:23;15.40;99.90
9564;DHT22;4820;50.870;4.702;2023-08-06T08:22:49;15.60;99.90
9564;DHT22;4820;50.870;4.702;2023-08-06T08:25:16;15.70;99.90
9564;DHT22;4820;50.870;4.702;2023-08-06T08:27:42;15.70;99.90
9564;DHT22;4820;50.870;4.702;2023-08-06T08:30:08;15.80;99.90
9564;DHT22;4820;50.870;4.702;2023-08-06T08:32:34;15.80;99.90
9564;DHT22;4820;50.870;4.702;2023-08-06T08:34:59;15.80;99.90
9564;DHT22;4820;50.870;4.702;2023-08-06T08:37:25;15.90;99.90
9564;DHT22;4820;50.870;4.702;2023-08-06T08:39:51;15.90;99.90
9564;DHT22;4820;50.870;4.702;2023-08-06T08:42:17;15.80;99.90
9564;DHT22;4820;50.870;4.702;2023-08-06T08:44:44;15.70;99.90
9564;DHT22;4820;50.870;4.702;2023-08-06T08:47:10;15.60;99.90
9564;DHT22;4820;50.870;4.702;2023-08-06T08:49:37;15.50;99.90
9564;DHT22;4820;50.870;4.702;2023-08-06T08:52:04;15.40;99.90
9564;DHT22;4820;50.870;4.702;2023-08-06T08:54:38;15.40;99.90
9564;DHT22;4820;50.870;4.702;2023-08-06T08:57:04;15.50;99.90
9564;DHT22;4820;50.870;4.702;2023-08-06T08:59:30;15.50;99.90
9564;DHT22;4820;50.870;4.702;2023-08-06T09:01:56;15.50;99.90
9564;DHT22;4820;50.870;4.702;2023-08-06T09:04:26;15.60;99.90
9564;DHT22;4820;50.870;4.702;2023-08-06T09:06:53;15.70;99.90
9564;DHT22;4820;50.870;4.702;2023-08-06T09:09:26;15.90;99.90
9564;DHT22;4820;50.870;4.702;2023-08-06T09:11:52;15.90;99.90
9564;DHT22;4820;50.870;4.702;2023-08-06T09:14:21;16.00;99.90
9564;DHT22;4820;50.870;4.702;2023-08-06T09:16:47;15.90;99.90
9564;DHT22;4820;50.870;4.702;2023-08-06T09:19:14;15.80;99.90
9564;DHT22;4820;50.870;4.702;2023-08-06T09:21:43;15.70;99.90
9564;DHT22;4820;50.870;4.702;2023-08-06T09:24:12;15.60;99.90
9564;DHT22;4820;50.870;4.702;2023-08-06T09:26:39;15.60;99.90
9564;DHT22;4820;50.870;4.702;2023-08-06T09:29:06;15.50;99.90
9564;DHT22;4820;50.870;4.702;2023-08-06T09:31:46;15.50;99.90
9564;DHT22;4820;50.870;4.702;2023-08-06T09:34:15;15.40;99.90
9564;DHT22;4820;50.870;4.702;2023-08-06T09:36:43;15.40;99.90
9564;DHT22;4820;50.870;4.702;2023-08-06T09:39:15;15.20;99.90
9564;DHT22;4820;50.870;4.702;2023-08-06T09:41:45;15.10;99.90
9564;DHT22;4820;50.870;4.702;2023-08-06T09:44:18;15.10;99.90
9564;DHT22;4820;50.870;4.702;2023-08-06T09:46:48;15.10;99.90
9564;DHT22;4820;50.870;4.702;2023-08-06T09:49:15;15.10;99.90
9564;DHT22;4820;50.870;4.702;2023-08-06T09:51:41;15.10;99.90
9564;DHT22;4820;50.870;4.702;2023-08-06T09:54:09;15.00;99.90
9564;DHT22;4820;50.870;4.702;2023-08-06T09:56:38;15.10;99.90
9564;DHT22;4820;50.870;4.702;2023-08-06T09:59:07;15.10;99.90
9564;DHT22;4820;50.870;4.702;2023-08-06T10:01:34;15.20;99.90
9564;DHT22;4820;50.870;4.702;2023-08-06T10:04:02;15.20;99.90
9564;DHT22;4820;50.870;4.702;2023-08-06T10:06:29;15.10;99.90
9564;DHT22;4820;50.870;4.702;2023-08-06T10:08:55;15.10;99.90
9564;DHT22;4820;50.870;4.702;2023-08-06T10:11:24;15.10;99.90
9564;DHT22;4820;50.870;4.702;2023-08-06T10:13:58;15.00;99.90
9564;DHT22;4820;50.870;4.702;2023-08-06T10:16:26;15.00;99.90
9564;DHT22;4820;50.870;4.702;2023-08-06T10:18:54;15.00;99.90
9564;DHT22;4820;50.870;4.702;2023-08-06T10:21:20;14.90;99.90
9564;DHT22;4820;50.870;4.702;2023-08-06T10:23:54;14.90;99.90
9564;DHT22;4820;50.870;4.702;2023-08-06T10:26:20;14.80;99.90
9564;DHT22;4820;50.870;4.702;2023-08-06T10:28:46;14.80;99.90
9564;DHT22;4820;50.870;4.702;2023-08-06T10:31:11;14.80;99.90
9564;DHT22;4820;50.870;4.702;2023-08-06T10:36:08;14.90;99.90
9564;DHT22;4820;50.870;4.702;2023-08-06T10:38:36;14.90;99.90
9564;DHT22;4820;50.870;4.702;2023-08-06T10:41:35;14.90;99.90
9564;DHT22;4820;50.870;4.702;2023-08-06T10:44:07;14.90;99.90
9564;DHT22;4820;50.870;4.702;2023-08-06T10:46:33;14.90;99.90
9564;DHT22;4820;50.870;4.702;2023-08-06T10:48:59;14.90;99.90
9564;DHT22;4820;50.870;4.702;2023-08-06T10:51:27;14.80;99.90
9564;DHT22;4820;50.870;4.702;2023-08-06T10:53:53;14.80;99.90
9564;DHT22;4820;50.870;4.702;2023-08-06T10:56:21;14.80;99.90
9564;DHT22;4820;50.870;4.702;2023-08-06T10:58:48;14.80;99.90
9564;DHT22;4820;50.870;4.702;2023-08-06T11:01:15;14.80;99.90
9564;DHT22;4820;50.870;4.702;2023-08-06T11:03:42;14.80;99.90
9564;DHT22;4820;50.870;4.702;2023-08-06T11:06:09;14.90;99.90
9564;DHT22;4820;50.870;4.702;2023-08-06T11:08:36;15.00;99.90
9564;DHT22;4820;50.870;4.702;2023-08-06T11:11:13;15.10;99.90
9564;DHT22;4820;50.870;4.702;2023-08-06T11:13:43;15.30;99.90
9564;DHT22;4820;50.870;4.702;2023-08-06T11:16:10;15.30;99.90
9564;DHT22;4820;50.870;4.702;2023-08-06T11:18:36;15.30;99.90
9564;DHT22;4820;50.870;4.702;2023-08-06T11:21:02;15.30;99.90
9564;DHT22;4820;50.870;4.702;2023-08-06T11:23:29;15.30;99.90
9564;DHT22;4820;50.870;4.702;2023-08-06T11:25:56;15.40;99.90
9564;DHT22;4820;50.870;4.702;2023-08-06T11:28:22;15.50;99.90
9564;DHT22;4820;50.870;4.702;2023-08-06T11:30:48;15.50;99.90
9564;DHT22;4820;50.870;4.702;2023-08-06T11:33:14;15.40;99.90
9564;DHT22;4820;50.870;4.702;2023-08-06T11:35:40;15.30;99.90
9564;DHT22;4820;50.870;4.702;2023-08-06T11:38:06;15.40;99.90
9564;DHT22;4820;50.870;4.702;2023-08-06T11:40:32;15.40;99.90
9564;DHT22;4820;50.870;4.702;2023-08-06T11:42:58;15.50;99.90
9564;DHT22;4820;50.870;4.702;2023-08-06T11:45:24;15.60;99.90
9564;DHT22;4820;50.870;4.702;2023-08-06T11:47:51;15.60;99.90
9564;DHT22;4820;50.870;4.702;2023-08-06T11:50:26;15.70;99.90
9564;DHT22;4820;50.870;4.702;2023-08-06T11:52:57;15.70;99.90
9564;DHT22;4820;50.870;4.702;2023-08-06T11:55:24;15.70;99.90
9564;DHT22;4820;50.870;4.702;2023-08-06T11:57:50;15.60;99.90
9564;DHT22;4820;50.870;4.702;2023-08-06T12:00:16;15.40;99.90
9564;DHT22;4820;50.870;4.702;2023-08-06T12:02:48;15.30;99.90
9564;DHT22;4820;50.870;4.702;2023-08-06T12:05:16;15.10;99.90
9564;DHT22;4820;50.870;4.702;2023-08-06T12:07:53;15.00;99.90
9564;DHT22;4820;50.870;4.702;2023-08-06T12:10:21;15.00;99.90
9564;DHT22;4820;50.870;4.702;2023-08-06T12:12:47;15.00;99.90
9564;DHT22;4820;50.870;4.702;2023-08-06T12:15:14;15.20;99.90
9564;DHT22;4820;50.870;4.702;2023-08-06T12:17:40;15.30;99.90
9564;DHT22;4820;50.870;4.702;2023-08-06T12:20:06;15.50;99.90
9564;DHT22;4820;50.870;4.702;2023-08-06T12:22:33;15.60;99.90
9564;DHT22;4820;50.870;4.702;2023-08-06T12:25:08;15.60;99.90
9564;DHT22;4820;50.870;4.702;2023-08-06T12:27:38;15.50;99.90
9564;DHT22;4820;50.870;4.702;2023-08-06T12:30:05;15.50;99.90
9564;DHT22;4820;50.870;4.702;2023-08-06T12:32:31;15.50;99.90
9564;DHT22;4820;50.870;4.702;2023-08-06T12:34:57;15.60;99.90
9564;DHT22;4820;50.870;4.702;2023-08-06T12:37:23;15.50;99.90
9564;DHT22;4820;50.870;4.702;2023-08-06T12:39:49;15.60;99.90
9564;DHT22;4820;50.870;4.702;2023-08-06T12:42:15;15.60;99.90
9564;DHT22;4820;50.870;4.702;2023-08-06T12:44:41;15.60;99.90
9564;DHT22;4820;50.870;4.702;2023-08-06T12:47:09;15.70;99.90
9564;DHT22;4820;50.870;4.702;2023-08-06T12:49:35;15.70;99.90
9564;DHT22;4820;50.870;4.702;2023-08-06T12:52:01;15.80;99.90
9564;DHT22;4820;50.870;4.702;2023-08-06T12:54:27;15.80;99.90
9564;DHT22;4820;50.870;4.702;2023-08-06T12:56:53;15.90;99.90
9564;DHT22;4820;50.870;4.702;2023-08-06T12:59:19;15.80;99.90
9564;DHT22;4820;50.870;4.702;2023-08-06T13:01:46;15.80;99.90
9564;DHT22;4820;50.870;4.702;2023-08-06T13:04:12;15.80;99.90
9564;DHT22;4820;50.870;4.702;2023-08-06T13:06:38;15.70;99.90
9564;DHT22;4820;50.870;4.702;2023-08-06T13:09:12;15.60;99.90
9564;DHT22;4820;50.870;4.702;2023-08-06T13:11:39;15.60;99.90
9564;DHT22;4820;50.870;4.702;2023-08-06T13:14:07;15.60;99.90
9564;DHT22;4820;50.870;4.702;2023-08-06T13:16:34;15.60;99.90
9564;DHT22;4820;50.870;4.702;2023-08-06T13:19:00;15.70;99.90
9564;DHT22;4820;50.870;4.702;2023-08-06T13:22:14;15.60;99.90
9564;DHT22;4820;50.870;4.702;2023-08-06T13:24:21;15.50;99.90
9564;DHT22;4820;50.870;4.702;2023-08-06T13:26:46;15.30;99.90
9564;DHT22;4820;50.870;4.702;2023-08-06T13:29:12;15.30;99.90
9564;DHT22;4820;50.870;4.702;2023-08-06T13:31:38;15.30;99.90
9564;DHT22;4820;50.870;4.702;2023-08-06T13:34:04;15.50;99.90
9564;DHT22;4820;50.870;4.702;2023-08-06T13:36:30;15.60;99.90
9564;DHT22;4820;50.870;4.702;2023-08-06T13:38:56;15.60;99.90
9564;DHT22;4820;50.870;4.702;2023-08-06T13:41:23;15.70;99.90
9564;DHT22;4820;50.870;4.702;2023-08-06T13:43:48;15.70;99.90
9564;DHT22;4820;50.870;4.702;2023-08-06T13:46:14;15.70;99.90
9564;DHT22;4820;50.870;4.702;2023-08-06T13:48:43;15.70;99.90
9564;DHT22;4820;50.870;4.702;2023-08-06T13:51:10;15.60;99.90
9564;DHT22;4820;50.870;4.702;2023-08-06T13:53:36;15.50;99.90
9564;DHT22;4820;50.870;4.702;2023-08-06T13:56:01;15.30;99.90
9564;DHT22;4820;50.870;4.702;2023-08-06T13:58:28;15.20;99.90
9564;DHT22;4820;50.870;4.702;2023-08-06T14:00:54;15.00;99.90
9564;DHT22;4820;50.870;4.702;2023-08-06T14:03:20;15.00;99.90
9564;DHT22;4820;50.870;4.702;2023-08-06T14:05:46;14.90;99.90
9564;DHT22;4820;50.870;4.702;2023-08-06T14:08:11;14.90;99.90
9564;DHT22;4820;50.870;4.702;2023-08-06T14:10:37;14.80;99.90
9564;DHT22;4820;50.870;4.702;2023-08-06T14:13:04;14.80;99.90
9564;DHT22;4820;50.870;4.702;2023-08-06T14:15:30;14.70;99.90
9564;DHT22;4820;50.870;4.702;2023-08-06T14:17:55;14.60;99.90
9564;DHT22;4820;50.870;4.702;2023-08-06T14:20:21;14.70;99.90
9564;DHT22;4820;50.870;4.702;2023-08-06T14:22:47;14.60;99.90
9564;DHT22;4820;50.870;4.702;2023-08-06T14:25:12;14.60;99.90
9564;DHT22;4820;50.870;4.702;2023-08-06T14:27:38;14.60;99.90
9564;DHT22;4820;50.870;4.702;2023-08-06T14:30:07;14.60;99.90
9564;DHT22;4820;50.870;4.702;2023-08-06T14:32:33;14.60;99.90
9564;DHT22;4820;50.870;4.702;2023-08-06T14:34:59;14.60;99.90
9564;DHT22;4820;50.870;4.702;2023-08-06T14:37:25;14.60;99.90
9564;DHT22;4820;50.870;4.702;2023-08-06T14:39:51;14.60;99.90
9564;DHT22;4820;50.870;4.702;2023-08-06T14:42:17;14.70;99.90
9564;DHT22;4820;50.870;4.702;2023-08-06T14:44:43;14.70;99.90
9564;DHT22;4820;50.870;4.702;2023-08-06T14:47:08;14.70;99.90
9564;DHT22;4820;50.870;4.702;2023-08-06T14:49:35;14.70;99.90
9564;DHT22;4820;50.870;4.702;2023-08-06T14:52:01;14.80;99.90
9564;DHT22;4820;50.870;4.702;2023-08-06T14:54:27;14.80;99.90
9564;DHT22;4820;50.870;4.702;2023-08-06T14:56:53;14.80;99.90
9564;DHT22;4820;50.870;4.702;2023-08-06T14:59:19;14.90;99.90
9564;DHT22;4820;50.870;4.702;2023-08-06T15:01:44;14.90;99.90
9564;DHT22;4820;50.870;4.702;2023-08-06T15:04:10;15.00;99.90
9564;DHT22;4820;50.870;4.702;2023-08-06T15:06:35;15.10;99.90
9564;DHT22;4820;50.870;4.702;2023-08-06T15:09:01;15.20;99.90
9564;DHT22;4820;50.870;4.702;2023-08-06T15:11:27;15.20;99.90
9564;DHT22;4820;50.870;4.702;2023-08-06T15:13:53;15.20;99.90
9564;DHT22;4820;50.870;4.702;2023-08-06T15:16:20;15.20;99.90
9564;DHT22;4820;50.870;4.702;2023-08-06T15:18:46;15.20;99.90
9564;DHT22;4820;50.870;4.702;2023-08-06T15:21:11;15.20;99.90
9564;DHT22;4820;50.870;4.702;2023-08-06T15:23:37;15.10;99.90
9564;DHT22;4820;50.870;4.702;2023-08-06T15:26:03;15.10;99.90
9564;DHT22;4820;50.870;4.702;2023-08-06T15:28:29;15.00;99.90
9564;DHT22;4820;50.870;4.702;2023-08-06T15:30:55;15.00;99.90
9564;DHT22;4820;50.870;4.702;2023-08-06T15:33:21;15.10;99.90
9564;DHT22;4820;50.870;4.702;2023-08-06T15:35:47;15.10;99.90
9564;DHT22;4820;50.870;4.702;2023-08-06T15:38:13;15.10;99.90
9564;DHT22;4820;50.870;4.702;2023-08-06T15:40:39;15.10;99.90
9564;DHT22;4820;50.870;4.702;2023-08-06T15:43:05;15.10;99.90
9564;DHT22;4820;50.870;4.702;2023-08-06T15:45:31;15.10;99.90
9564;DHT22;4820;50.870;4.702;2023-08-06T15:47:57;15.20;99.90
9564;DHT22;4820;50.870;4.702;2023-08-06T15:50:23;15.30;99.90
9564;DHT22;4820;50.870;4.702;2023-08-06T15:52:49;15.30;99.90
9564;DHT22;4820;50.870;4.702;2023-08-06T15:55:15;15.40;99.90
9564;DHT22;4820;50.870;4.702;2023-08-06T15:57:41;15.40;99.90
9564;DHT22;4820;50.870;4.702;2023-08-06T16:00:08;15.40;99.90
9564;DHT22;4820;50.870;4.702;2023-08-06T16:02:34;15.50;99.90
9564;DHT22;4820;50.870;4.702;2023-08-06T16:05:00;15.70;99.90
9564;DHT22;4820;50.870;4.702;2023-08-06T16:07:26;15.90;99.90